INFORMACIÓN METAR y TAF
METAR FOR LEBB
ADDS - METARS form results

(2022 UTC 18 September 2019)
Data provider http://aviationweather.gov/metar/data/
 
METAR text: LEBB 182000Z 31003KT 9999 OVC016 20/18 Q1019 NOSIG
Conditions at: LEBB (BILBAO/SONDICA , ES) observed 2000 UTC 18 September 2019
Temperature: 20.0°C (68°F)
Dewpoint: 18.0°C (64°F) [RH = 88%]
Pressure (altimeter): 30.09 inches Hg (1019.0 mb)
Winds: from the NW (310 degrees) at 3 MPH (3 knots; 1.5 m/s)
Visibility: 6 or more miles (10+ km)
Ceiling: 1600 feet AGL
Clouds: overcast cloud deck at 1600 feet AGL
Weather: no significant weather observed at this time

METAR text: LEBB 181930Z 30003KT 270V340 9999 OVC016 20/18 Q1019 NOSIG
Conditions at: LEBB (BILBAO/SONDICA , ES) observed 1930 UTC 18 September 2019
Temperature: 20.0°C (68°F)
Dewpoint: 18.0°C (64°F) [RH = 88%]
Pressure (altimeter): 30.09 inches Hg (1019.0 mb)
Winds: from the WNW (300 degrees) at 3 MPH (3 knots; 1.5 m/s)
Visibility: 6 or more miles (10+ km)
Ceiling: 1600 feet AGL
Clouds: overcast cloud deck at 1600 feet AGL
Weather: no significant weather observed at this time

Forecast for: LEBB (BILBAO/SONDICA , ES)
Text: TAF LEBB 181700Z 1818/1918 30005KT 9999 SCT020 TX25/1914Z TN16/1906Z
Forecast period: 1800 UTC 18 September 2019 to 1800 UTC 19 September 2019
Forecast type: FROM: standard forecast or significant change
Winds: from the WNW (300 degrees) at 6 MPH (5 knots; 2.6 m/s)
Visibility: 6 or more miles 10+ km)
Ceiling: at least 12,000 feet AGL
Clouds: scattered clouds at 2000 feet AGL
Weather: no significant weather forecast for this period
Text: PROB30
Forecast period: 1800 to 2100 UTC 18 September 2019
Forecast type: TEMPORARY: The following changes expected for less than half the time period
Visibility: missing
Ceiling: 1000 feet AGL
Clouds: broken clouds at 1000 feet AGL
Weather: no significant weather forecast for this period
Text: TEMPO 1818/1821 BKN010
Forecast period: 0000 to 0900 UTC 19 September 2019
Forecast type: TEMPORARY: The following changes expected for less than half the time period
Visibility: 1.86 miles (2.99 km)
Ceiling: 1000 feet AGL
Clouds: broken clouds at 1000 feet AGL
Weather: BR  (mist)

 MAPA DE AEROPUERTO

 INFORMACIÓN DE PISTA
Pista 10 Longitud 6562 ft Ancho 148 ft
Elevación 116 ft Umbral desplazado 0 ft Rumbo de pista 97
Pista 28 Longitud 6562 ft Ancho 148 ft
Elevación 129 ft Umbral desplazado 0 ft Rumbo de pista 277
Pista 12 Longitud 8530 ft Ancho 148 ft
Elevación 119 ft Umbral desplazado 0 ft Rumbo de pista 117
Pista 30 Longitud 8530 ft Ancho 148 ft
Elevación 128 ft Umbral desplazado 1509 ft Rumbo de pista 297

 FRECUANCIAS DEL AEROPUERTO
Tipo APP Nombre APP Frecuencia 120.7 MHZ
Tipo ATIS Nombre ATIS Frecuencia 118.825 MHZ
Tipo GND Nombre GND Frecuencia 121.7 MHZ
Tipo TWR Nombre TWR Frecuencia 118.5 MHZ

 RADIO AYUDAS DEL AEROPUERTO
Tipo VOR-DME Nombre Bilbao Frecuencia 115900 KHZ




Normativa | Spanair Virtual © 2019 |